Terminal Aerodrome Forecast
Issued by NWS Wichita, KS

Home | Current Version | Previous Version | Text Only | Print | Product List | Glossary On
Versions: 1 2 3 4 5 6 7 8 9 10 11 12 13 14 15 16 17 18 19 20 21 22
000
FTUS43 KICT 271700
TAFICT
TAF
KICT 271725Z 2718/2818 17006KT P6SM BKN120
     FM272100 17009KT P6SM VCTS FEW050 OVC100CB
     FM280200 14007KT P6SM OVC100
     FM281200 15008KT P6SM VCSH OVC090=

USA.gov is the U.S. government's official web portal to all federal, state and local government web resources and services.